9VA8 weather

Innsbrook Pavilion Heliport
Richmond, Virginia, United States

Public forecast

Using degrees Fahrenheit for public forecast. Weather courtesy of forecast.io.

Closest aviation weather report (METAR) to Innsbrook Pavilion Heliport

Closest report is Hanover County Municipal Airport, 7.9 nm (14.7 km) ENE. Retrieved 2019/10/23 03:54 UTC (1 hour ago):

KOFP 230354Z AUTO 30004KT 10SM OVC004 15/13 A2990 RMK AO2 SLP123 T01500133

Closest aviation forecast (TAF) to Innsbrook Pavilion Heliport

Closest forecast is Richmond International Airport, 15.3 nm (28.3 km) SE. Retrieved 2019-10-23 00:36 UTC (4 hours ago):

TAF KRIC 222335Z 2300/2324 28006KT P6SM BKN015 FM230200 27005KT P6SM BKN045 FM230300 31004KT P6SM BKN100 FM230900 29006KT P6SM SKC